Time;durP1;ratioP1;P1;durP2;ratioP2;P2;SDS_P1;SDS_P2;PMS_P1;PMS_P2;Temp;Humidity;BMP_temperature;BMP_pressure;BME280_temperature;BME280_humidity;BME280_pressure;Samples;Min_cycle;Max_cycle;Signal;HPM_P1;HPM_P2
2023/04/18 00:01:54;;;;;;;20.30;8.50;;;;;;;7.51;83.11;101204.92;107676;1249;99804;-62
2023/04/18 00:04:24;;;;;;;15.70;7.50;;;;;;;7.53;83.31;101205.52;107696;1250;113140;-61
2023/04/18 00:06:52;;;;;;;13.10;7.00;;;;;;;7.54;83.29;101203.12;107578;1250;110076;-62
2023/04/18 00:09:21;;;;;;;16.00;6.80;;;;;;;7.54;83.21;101202.24;107547;1251;108491;-61
2023/04/18 00:11:49;;;;;;;14.50;6.40;;;;;;;7.53;82.97;101201.08;107580;1248;99151;-60
2023/04/18 00:14:19;;;;;;;21.40;7.10;;;;;;;7.48;82.78;101195.33;107642;1249;99250;-62
2023/04/18 00:16:47;;;;;;;14.70;7.40;;;;;;;7.45;82.75;101193.25;107861;1250;113376;-61
2023/04/18 00:19:17;;;;;;;13.60;6.80;;;;;;;7.37;82.52;101195.37;107542;1250;107417;-60
2023/04/18 00:21:46;;;;;;;15.70;7.40;;;;;;;7.31;82.58;101190.74;107564;1250;108297;-62
2023/04/18 00:24:14;;;;;;;10.00;6.20;;;;;;;7.27;82.53;101188.21;107900;1248;99214;-61
2023/04/18 00:26:43;;;;;;;13.90;6.10;;;;;;;7.21;82.46;101193.04;107974;1249;99051;-62
2023/04/18 00:29:12;;;;;;;8.90;5.70;;;;;;;7.12;82.18;101189.91;107934;1248;113212;-61
2023/04/18 00:31:40;;;;;;;18.70;6.10;;;;;;;7.00;82.01;101186.41;107649;1250;109704;-60
2023/04/18 00:34:09;;;;;;;16.30;7.00;;;;;;;6.89;81.96;101182.33;107521;1250;108408;-60
2023/04/18 00:36:37;;;;;;;9.90;6.20;;;;;;;6.79;82.14;101184.06;107473;1250;99173;-61
2023/04/18 00:39:06;;;;;;;15.00;6.50;;;;;;;6.71;82.39;101182.08;107535;1250;99048;-61
2023/04/18 00:41:34;;;;;;;14.10;5.40;;;;;;;6.63;82.67;101185.30;107714;1250;114412;-60
2023/04/18 00:44:03;;;;;;;14.50;5.70;;;;;;;6.56;82.59;101186.77;107635;1250;110175;-61
2023/04/18 00:46:32;;;;;;;9.20;6.30;;;;;;;6.54;82.65;101184.40;107605;1250;108765;-61
2023/04/18 00:49:01;;;;;;;14.00;6.00;;;;;;;6.55;82.74;101187.94;107545;1253;99244;-61
2023/04/18 00:51:29;;;;;;;20.50;6.90;;;;;;;6.56;83.10;101184.45;107578;1250;99051;-62
2023/04/18 00:53:59;;;;;;;13.70;7.10;;;;;;;6.55;83.06;101183.27;107923;1248;113533;-61
2023/04/18 00:56:28;;;;;;;11.70;6.70;;;;;;;6.53;83.08;101188.23;107744;1249;110086;-60
2023/04/18 00:58:58;;;;;;;23.70;7.10;;;;;;;6.52;82.98;101189.54;107749;1248;108435;-60
2023/04/18 01:01:26;;;;;;;15.80;6.80;;;;;;;6.55;83.28;101189.70;107920;1248;99019;-61
2023/04/18 01:03:55;;;;;;;11.40;7.00;;;;;;;6.55;83.24;101185.10;107765;1251;99704;-62
2023/04/18 01:06:25;;;;;;;18.30;7.60;;;;;;;6.55;83.31;101184.52;107584;1249;112816;-61
2023/04/18 01:08:55;;;;;;;18.70;7.50;;;;;;;6.56;83.56;101183.23;107915;1249;110277;-61
2023/04/18 01:11:25;;;;;;;16.10;8.10;;;;;;;6.61;83.78;101182.23;107882;1248;108863;-61
2023/04/18 01:14:00;;;;;;;15.90;7.10;;;;;;;6.65;84.10;101181.43;107621;1250;99233;-62
2023/04/18 01:16:31;;;;;;;12.10;6.30;;;;;;;6.70;84.09;101179.46;107888;1248;99521;-61
2023/04/18 01:19:02;;;;;;;14.30;6.60;;;;;;;6.72;83.72;101185.52;107793;1250;112294;-61
2023/04/18 01:21:35;;;;;;;14.40;6.50;;;;;;;6.71;83.26;101183.52;107768;1250;109813;-61
2023/04/18 01:24:13;;;;;;;12.80;7.40;;;;;;;6.71;83.50;101183.67;107888;1248;107588;-61
2023/04/18 01:26:46;;;;;;;14.40;6.60;;;;;;;6.71;83.29;101182.63;107872;1249;99187;-61
2023/04/18 01:29:14;;;;;;;14.70;7.00;;;;;;;6.67;82.97;101172.41;107598;1250;99052;-60
2023/04/18 01:31:43;;;;;;;15.30;6.50;;;;;;;6.66;83.15;101174.08;107634;1250;111925;-61
2023/04/18 01:34:18;;;;;;;23.00;6.80;;;;;;;6.68;83.26;101176.77;107528;1250;110751;-61
2023/04/18 01:36:47;;;;;;;13.70;6.70;;;;;;;6.70;83.25;101176.11;107681;1250;108316;-61
2023/04/18 01:39:17;;;;;;;14.90;6.30;;;;;;;6.71;83.06;101176.73;107552;1250;99164;-60
2023/04/18 01:41:45;;;;;;;11.80;6.90;;;;;;;6.72;83.08;101182.05;107573;1250;99045;-61
2023/04/18 01:44:14;;;;;;;9.70;5.90;;;;;;;6.72;82.76;101183.07;107604;1253;113589;-60
2023/04/18 01:46:46;;;;;;;11.20;6.00;;;;;;;6.67;82.20;101178.45;107654;1249;109868;-61
2023/04/18 01:49:15;;;;;;;8.90;6.10;;;;;;;6.59;82.17;101175.40;107655;1254;107966;-60
2023/04/18 01:51:43;;;;;;;11.60;6.30;;;;;;;6.52;82.30;101178.48;107631;1253;99080;-60
2023/04/18 01:54:12;;;;;;;17.50;6.30;;;;;;;6.50;82.37;101171.88;107655;1251;99803;-61
2023/04/18 01:56:40;;;;;;;17.40;6.30;;;;;;;6.52;82.59;101178.14;107664;1253;112256;-62
2023/04/18 01:59:09;;;;;;;9.20;6.00;;;;;;;6.56;82.69;101173.96;107646;1253;109902;-61
2023/04/18 02:01:39;;;;;;;10.40;5.90;;;;;;;6.62;82.88;101174.48;107619;1253;108121;-60
2023/04/18 02:04:07;;;;;;;12.60;6.20;;;;;;;6.65;82.68;101174.27;107622;1253;99087;-62
2023/04/18 02:06:36;;;;;;;14.70;7.00;;;;;;;6.65;82.39;101173.95;107636;1251;99823;-61
2023/04/18 02:09:05;;;;;;;11.90;6.00;;;;;;;6.62;82.16;101174.69;107609;1253;113570;-61
2023/04/18 02:11:33;;;;;;;13.10;7.30;;;;;;;6.58;81.92;101177.21;107606;1253;110193;-61
2023/04/18 02:14:03;;;;;;;14.30;6.10;;;;;;;6.55;81.75;101178.46;107566;1253;109263;-62
2023/04/18 02:16:32;;;;;;;9.60;6.10;;;;;;;6.54;81.93;101180.48;107620;1253;99185;-61
2023/04/18 02:19:03;;;;;;;9.00;6.00;;;;;;;6.58;82.30;101177.56;107670;1253;99711;-62
2023/04/18 02:21:31;;;;;;;20.00;6.60;;;;;;;6.65;82.66;101173.89;107607;1253;113667;-61
2023/04/18 02:24:00;;;;;;;16.60;6.50;;;;;;;6.70;82.72;101170.21;107588;1254;109699;-61
2023/04/18 02:26:28;;;;;;;11.00;5.90;;;;;;;6.75;82.75;101174.33;107598;1253;108879;-62
2023/04/18 02:28:57;;;;;;;12.30;5.80;;;;;;;6.78;82.59;101173.63;107572;1252;99273;-61
2023/04/18 02:31:26;;;;;;;14.60;6.10;;;;;;;6.80;82.47;101171.54;107633;1253;99179;-61
2023/04/18 02:33:54;;;;;;;16.00;6.70;;;;;;;6.82;82.53;101170.85;107608;1253;113455;-60
2023/04/18 02:36:24;;;;;;;17.60;7.80;;;;;;;6.82;82.27;101170.50;107628;1253;109691;-61
2023/04/18 02:38:53;;;;;;;17.70;7.90;;;;;;;6.72;81.45;101167.05;107526;1254;107224;-61
2023/04/18 02:41:22;;;;;;;12.30;7.10;;;;;;;6.65;81.61;101167.84;107589;1253;99057;-62
2023/04/18 02:43:50;;;;;;;15.60;7.00;;;;;;;6.64;81.80;101166.48;107592;1253;99201;-61
2023/04/18 02:46:20;;;;;;;17.30;7.40;;;;;;;6.61;81.61;101167.77;107639;1254;112701;-60
2023/04/18 02:48:48;;;;;;;12.80;6.70;;;;;;;6.61;81.92;101164.06;107637;1253;109084;-61
2023/04/18 02:51:23;;;;;;;14.00;7.00;;;;;;;6.63;81.96;101168.20;107663;1252;108397;-60
2023/04/18 02:53:53;;;;;;;13.50;7.10;;;;;;;6.65;81.96;101170.39;107621;1252;99121;-61
2023/04/18 02:56:22;;;;;;;15.20;7.00;;;;;;;6.66;82.08;101172.83;107689;1251;99832;-60
2023/04/18 02:59:09;;;;;;;9.50;5.70;;;;;;;6.65;82.00;101167.84;107530;1252;113035;-60
2023/04/18 03:01:55;;;;;;;13.70;5.90;;;;;;;6.60;81.39;101166.25;107607;1253;109664;-61
2023/04/18 03:04:24;;;;;;;15.00;5.50;;;;;;;6.56;81.48;101169.15;107688;1253;106440;-61
2023/04/18 03:06:59;;;;;;;17.90;5.40;;;;;;;6.52;81.17;101168.73;107621;1253;99202;-60
2023/04/18 03:09:28;;;;;;;17.90;6.40;;;;;;;6.38;80.38;101172.85;107695;1253;99696;-61
2023/04/18 03:12:01;;;;;;;9.50;5.70;;;;;;;6.23;80.23;101173.76;107604;1256;112522;-60
2023/04/18 03:14:30;;;;;;;14.50;6.30;;;;;;;6.13;80.69;101174.05;107596;1253;110001;-60
2023/04/18 03:16:59;;;;;;;13.40;7.00;;;;;;;6.04;80.83;101176.38;107522;1253;108679;-60
2023/04/18 03:19:31;;;;;;;12.20;5.90;;;;;;;6.02;80.80;101180.98;107544;1253;99026;-60
2023/04/18 03:22:04;;;;;;;9.70;6.20;;;;;;;6.02;81.17;101181.89;107640;1255;99061;-61
2023/04/18 03:24:34;;;;;;;15.40;5.70;;;;;;;6.03;81.42;101179.85;107632;1253;112119;-61
2023/04/18 03:27:04;;;;;;;17.00;6.80;;;;;;;6.10;81.63;101180.83;107596;1252;110795;-61
2023/04/18 03:29:34;;;;;;;12.00;7.30;;;;;;;6.13;81.50;101181.55;107582;1253;108160;-61
2023/04/18 03:32:03;;;;;;;17.30;6.90;;;;;;;6.16;81.66;101179.73;107566;1253;99238;-62
2023/04/18 03:34:32;;;;;;;16.10;6.40;;;;;;;6.20;81.60;101180.73;107612;1253;99052;-61
2023/04/18 03:37:03;;;;;;;13.60;6.00;;;;;;;6.22;81.47;101181.33;107608;1253;113573;-62
2023/04/18 03:39:35;;;;;;;9.60;6.30;;;;;;;6.23;81.24;101183.55;107565;1253;110036;-61
2023/04/18 03:42:03;;;;;;;13.60;6.90;;;;;;;6.30;81.54;101185.46;107590;1253;108107;-62
2023/04/18 03:44:32;;;;;;;13.00;6.30;;;;;;;6.36;81.37;101185.39;107574;1252;99224;-61
2023/04/18 03:47:01;;;;;;;11.80;5.80;;;;;;;6.37;81.12;101183.95;107635;1253;99076;-62
2023/04/18 03:49:31;;;;;;;16.90;7.60;;;;;;;6.39;81.19;101182.33;107709;1250;113250;-62
2023/04/18 03:51:59;;;;;;;9.60;5.70;;;;;;;6.48;81.33;101185.54;107638;1251;109836;-61
2023/04/18 03:54:27;;;;;;;17.00;7.10;;;;;;;6.53;80.95;101177.75;107625;1249;108454;-60
2023/04/18 03:56:58;;;;;;;20.80;8.50;;;;;;;6.61;81.13;101180.63;107563;1251;99286;-62
2023/04/18 03:59:28;;;;;;;22.70;7.80;;;;;;;6.66;80.66;101183.84;107637;1250;99168;-61
2023/04/18 04:01:56;;;;;;;16.00;7.30;;;;;;;6.67;80.47;101183.95;107602;1250;114133;-61
2023/04/18 04:04:25;;;;;;;14.00;6.30;;;;;;;6.69;80.18;101181.30;107657;1250;108991;-60
2023/04/18 04:06:57;;;;;;;12.20;6.00;;;;;;;6.71;80.11;101183.70;107657;1256;107488;-61
2023/04/18 04:09:38;;;;;;;17.70;6.20;;;;;;;6.76;80.05;101186.06;107673;1250;99048;-61
2023/04/18 04:12:07;;;;;;;11.80;5.70;;;;;;;6.81;79.73;101188.02;107685;1250;99716;-61
2023/04/18 04:14:36;;;;;;;12.00;5.60;;;;;;;6.85;79.63;101190.08;107546;1251;112908;-62
2023/04/18 04:17:05;;;;;;;20.10;6.60;;;;;;;6.95;79.96;101194.42;107610;1250;109913;-62
2023/04/18 04:19:34;;;;;;;20.70;6.60;;;;;;;7.06;79.85;101194.22;107674;1256;108982;-61
2023/04/18 04:22:09;;;;;;;17.10;5.70;;;;;;;7.16;79.54;101197.67;107603;1251;99167;-62
2023/04/18 04:24:38;;;;;;;66.20;7.60;;;;;;;7.21;79.11;101197.70;107605;1249;99045;-61
2023/04/18 04:27:07;;;;;;;11.20;5.40;;;;;;;7.28;79.10;101198.46;107612;1254;113657;-62
2023/04/18 04:29:37;;;;;;;12.90;6.80;;;;;;;7.33;78.85;101196.70;107731;1256;110865;-61
2023/04/18 04:32:07;;;;;;;13.80;6.70;;;;;;;7.36;78.91;101201.50;107875;1252;107249;-62
2023/04/18 04:34:40;;;;;;;21.00;5.80;;;;;;;7.44;78.94;101200.79;107680;1250;99150;-62
2023/04/18 04:37:12;;;;;;;9.80;5.60;;;;;;;7.50;78.60;101209.10;107551;1253;99059;-62
2023/04/18 04:39:55;;;;;;;12.30;5.80;;;;;;;7.56;78.50;101208.52;107724;1251;112968;-61
2023/04/18 04:42:42;;;;;;;20.40;5.80;;;;;;;7.59;77.88;101210.28;107802;1251;109675;-62
2023/04/18 04:45:16;;;;;;;10.80;6.20;;;;;;;7.59;77.62;101214.95;107854;1251;109507;-62
2023/04/18 04:47:46;;;;;;;13.50;6.10;;;;;;;7.62;77.34;101211.52;107819;1250;99224;-62
2023/04/18 04:50:17;;;;;;;13.50;6.20;;;;;;;7.60;76.58;101218.44;107739;1254;99052;-63
2023/04/18 04:52:45;;;;;;;14.70;6.30;;;;;;;7.59;76.73;101219.96;107661;1250;115962;-62
2023/04/18 04:55:14;;;;;;;12.30;5.70;;;;;;;7.66;77.25;101217.27;107537;1251;110568;-61
2023/04/18 04:57:44;;;;;;;12.70;6.60;;;;;;;7.77;77.20;101215.30;107662;1256;107803;-65
2023/04/18 05:00:25;;;;;;;14.50;6.20;;;;;;;7.83;76.64;101220.95;107672;1252;99163;-64
2023/04/18 05:02:56;;;;;;;18.90;6.20;;;;;;;7.87;76.22;101221.60;107737;1255;98982;-62
2023/04/18 05:05:25;;;;;;;17.10;5.90;;;;;;;7.87;75.52;101220.70;107749;1251;113294;-61
2023/04/18 05:07:54;;;;;;;9.80;5.20;;;;;;;7.87;75.28;101218.17;107584;1251;109829;-61
2023/04/18 05:10:22;;;;;;;13.00;7.50;;;;;;;7.89;75.18;101219.08;107589;1253;108415;-62
2023/04/18 05:12:51;;;;;;;27.60;7.50;;;;;;;7.93;75.00;101218.65;107589;1251;99176;-63
2023/04/18 05:15:20;;;;;;;19.70;9.90;;;;;;;8.00;75.32;101218.88;107594;1251;100999;-61
2023/04/18 05:17:49;;;;;;;12.80;6.60;;;;;;;8.11;74.86;101222.59;107670;1253;112258;-60
2023/04/18 05:20:17;;;;;;;16.70;5.40;;;;;;;8.17;74.32;101218.89;107722;1251;109057;-61
2023/04/18 05:22:46;;;;;;;11.30;4.80;;;;;;;8.21;72.92;101220.77;107669;1257;109535;-62
2023/04/18 05:25:14;;;;;;;8.60;5.50;;;;;;;8.21;72.91;101221.52;107516;1251;99160;-62
2023/04/18 05:27:45;;;;;;;14.90;5.00;;;;;;;8.25;72.78;101219.80;107653;1251;99153;-62
2023/04/18 05:30:14;;;;;;;11.00;4.50;;;;;;;8.24;72.27;101219.02;107770;1251;112348;-62
2023/04/18 05:32:43;;;;;;;9.70;5.50;;;;;;;8.25;72.52;101221.02;107567;1251;108205;-61
2023/04/18 05:35:11;;;;;;;11.80;5.10;;;;;;;8.30;71.97;101221.77;107617;1254;107278;-62
2023/04/18 05:37:39;;;;;;;12.40;4.80;;;;;;;8.32;71.68;101221.62;107595;1251;99161;-61
2023/04/18 05:40:09;;;;;;;13.80;4.80;;;;;;;8.38;71.70;101222.80;107694;1254;99133;-62
2023/04/18 05:42:37;;;;;;;10.10;6.00;;;;;;;8.43;71.00;101226.33;107599;1251;113590;-62
2023/04/18 05:45:07;;;;;;;11.40;5.40;;;;;;;8.48;71.23;101228.73;107654;1251;109677;-60
2023/04/18 05:47:35;;;;;;;13.70;6.50;;;;;;;8.53;71.31;101228.71;107747;1256;107778;-61
2023/04/18 05:50:05;;;;;;;14.90;5.40;;;;;;;8.58;71.41;101231.36;107559;1251;99172;-61
2023/04/18 05:52:37;;;;;;;11.70;5.20;;;;;;;8.57;70.77;101231.98;107577;1251;99054;-62
2023/04/18 05:55:07;;;;;;;12.00;5.60;;;;;;;8.60;71.07;101229.49;107628;1253;112473;-62
2023/04/18 05:57:35;;;;;;;9.20;5.10;;;;;;;8.65;71.03;101233.25;107756;1256;110232;-61
2023/04/18 06:00:05;;;;;;;15.20;4.60;;;;;;;8.69;70.94;101230.80;107633;1251;108234;-61
2023/04/18 06:02:39;;;;;;;14.90;5.70;;;;;;;8.72;70.21;101232.86;107644;1251;99258;-61
2023/04/18 06:05:08;;;;;;;13.80;5.20;;;;;;;8.77;70.46;101231.27;107674;1251;99187;-63
2023/04/18 06:07:38;;;;;;;18.80;5.30;;;;;;;8.86;70.56;101230.64;107748;1250;113539;-61
2023/04/18 06:10:09;;;;;;;13.10;4.30;;;;;;;8.95;70.41;101230.50;107584;1250;110010;-62
2023/04/18 06:12:39;;;;;;;14.60;5.50;;;;;;;9.05;69.97;101227.96;107581;1253;108436;-63
2023/04/18 06:15:08;;;;;;;16.80;5.50;;;;;;;9.14;70.19;101224.77;107679;1253;99179;-61
2023/04/18 06:17:36;;;;;;;10.50;5.20;;;;;;;9.22;69.25;101224.67;107759;1251;99718;-63
2023/04/18 06:20:06;;;;;;;12.70;5.10;;;;;;;9.31;69.44;101228.15;107621;1252;113617;-62
2023/04/18 06:22:34;;;;;;;24.00;4.60;;;;;;;9.43;69.48;101226.20;107700;1251;109221;-61
2023/04/18 06:25:04;;;;;;;12.20;5.40;;;;;;;9.48;68.72;101230.27;107576;1253;107701;-61
2023/04/18 06:27:32;;;;;;;14.80;4.60;;;;;;;9.58;68.66;101228.98;107620;1249;99639;-61
2023/04/18 06:30:01;;;;;;;10.40;4.50;;;;;;;9.67;68.82;101232.59;107618;1253;99031;-64
2023/04/18 06:32:30;;;;;;;15.10;5.50;;;;;;;9.78;68.14;101230.81;107562;1253;113511;-62
2023/04/18 06:35:01;;;;;;;14.80;5.60;;;;;;;9.87;68.08;101231.58;107594;1251;108824;-61
2023/04/18 06:37:30;;;;;;;11.70;5.00;;;;;;;10.02;68.45;101232.71;107767;1253;107777;-62
2023/04/18 06:39:58;;;;;;;7.40;4.50;;;;;;;10.19;68.10;101232.27;107597;1251;99272;-61
2023/04/18 06:42:27;;;;;;;11.70;4.20;;;;;;;10.29;67.06;101228.80;107637;1251;99062;-62
2023/04/18 06:44:56;;;;;;;13.10;4.30;;;;;;;10.38;66.83;101228.63;107541;1251;112606;-62
2023/04/18 06:47:24;;;;;;;11.50;3.80;;;;;;;10.55;66.45;101232.36;107618;1251;110291;-61
2023/04/18 06:49:53;;;;;;;10.90;3.70;;;;;;;10.71;67.18;101234.99;107657;1253;108745;-62
2023/04/18 06:52:21;;;;;;;13.70;3.90;;;;;;;10.88;67.02;101232.88;107591;1253;99830;-61
2023/04/18 06:54:50;;;;;;;13.60;3.50;;;;;;;11.02;66.24;101234.27;107609;1251;99820;-62
2023/04/18 06:57:18;;;;;;;11.80;3.50;;;;;;;11.07;65.47;101230.92;107623;1253;114680;-61
2023/04/18 06:59:47;;;;;;;12.30;3.20;;;;;;;11.11;63.50;101234.73;107620;1250;109634;-61
2023/04/18 07:02:15;;;;;;;9.40;3.80;;;;;;;11.11;64.30;101237.45;107631;1253;108584;-62
2023/04/18 07:04:43;;;;;;;9.30;3.10;;;;;;;11.13;64.34;101234.63;107889;1252;99272;-64
2023/04/18 07:07:12;;;;;;;12.50;3.00;;;;;;;11.13;63.50;101231.71;107914;1251;99684;-61
2023/04/18 07:09:41;;;;;;;16.60;3.30;;;;;;;11.15;63.63;101236.55;107969;1251;112362;-62
2023/04/18 07:12:09;;;;;;;15.70;3.20;;;;;;;11.17;62.29;101237.13;107946;1251;110181;-61
2023/04/18 07:14:38;;;;;;;8.30;3.20;;;;;;;11.09;63.09;101243.73;107914;1251;107016;-62
2023/04/18 07:17:07;;;;;;;12.00;3.20;;;;;;;11.07;63.58;101241.94;107648;1253;99172;-61
2023/04/18 07:19:35;;;;;;;15.00;5.10;;;;;;;11.05;63.78;101238.10;107954;1251;99175;-62
2023/04/18 07:22:04;;;;;;;17.60;5.00;;;;;;;11.08;63.97;101246.17;107944;1251;113598;-62
2023/04/18 07:24:32;;;;;;;13.90;3.60;;;;;;;11.08;63.92;101244.02;107918;1251;109569;-63
2023/04/18 07:27:02;;;;;;;15.80;3.90;;;;;;;11.08;64.07;101242.75;107807;1251;108012;-62
2023/04/18 07:29:31;;;;;;;15.20;4.40;;;;;;;11.08;63.85;101243.74;107737;1251;99188;-61
2023/04/18 07:31:59;;;;;;;10.70;3.00;;;;;;;11.10;63.87;101247.97;107671;1252;99300;-63
2023/04/18 07:34:28;;;;;;;14.20;3.40;;;;;;;11.11;64.26;101249.33;107739;1252;113467;-62
2023/04/18 07:36:57;;;;;;;11.90;3.20;;;;;;;11.15;64.64;101253.25;107606;1251;109627;-61
2023/04/18 07:39:25;;;;;;;19.30;3.40;;;;;;;11.19;64.39;101250.78;107633;1250;108402;-62
2023/04/18 07:41:54;;;;;;;11.00;3.70;;;;;;;11.24;64.42;101251.27;107651;1251;99502;-61
2023/04/18 07:44:24;;;;;;;12.70;3.40;;;;;;;11.28;64.20;101248.02;107638;1251;99708;-62
2023/04/18 07:46:53;;;;;;;15.20;3.80;;;;;;;11.34;64.48;101249.02;107681;1251;113388;-61
2023/04/18 07:49:21;;;;;;;9.60;3.00;;;;;;;11.41;64.49;101249.45;107672;1251;111193;-63
2023/04/18 07:51:50;;;;;;;19.00;3.30;;;;;;;11.48;64.35;101250.50;107639;1251;108788;-61
2023/04/18 07:54:18;;;;;;;18.80;3.90;;;;;;;11.53;64.47;101251.50;107661;1250;99157;-61
2023/04/18 07:56:46;;;;;;;13.80;3.20;;;;;;;11.64;64.39;101250.95;107681;1250;99045;-62
2023/04/18 07:59:15;;;;;;;14.00;3.60;;;;;;;11.80;64.78;101248.89;106862;1251;1032560;-61
2023/04/18 08:01:44;;;;;;;13.30;3.10;;;;;;;11.96;64.50;101249.68;107688;1251;110218;-62
2023/04/18 08:04:13;;;;;;;13.10;4.00;;;;;;;12.13;64.01;101248.92;107684;1251;108522;-62
2023/04/18 08:06:43;;;;;;;11.20;3.80;;;;;;;12.26;63.49;101249.63;107621;1250;99221;-62
2023/04/18 08:09:11;;;;;;;11.40;3.20;;;;;;;12.43;63.22;101251.23;107644;1250;99045;-63
2023/04/18 08:11:41;;;;;;;13.20;3.40;;;;;;;12.56;62.89;101253.81;107855;1253;113604;-61
2023/04/18 08:14:10;;;;;;;6.20;3.30;;;;;;;12.68;62.50;101253.05;107580;1251;109587;-62
2023/04/18 08:16:39;;;;;;;13.80;3.60;;;;;;;12.79;62.14;101259.98;107744;1251;108010;-62
2023/04/18 08:19:08;;;;;;;13.10;3.60;;;;;;;12.84;61.70;101262.61;107653;1251;99611;-62
2023/04/18 08:21:38;;;;;;;11.60;2.90;;;;;;;12.85;61.42;101262.70;107800;1251;99761;-63
2023/04/18 08:24:08;;;;;;;12.30;3.20;;;;;;;12.88;61.24;101263.41;107967;1251;112994;-63
2023/04/18 08:26:36;;;;;;;18.50;3.60;;;;;;;12.95;61.16;101263.97;107746;1251;110120;-63
2023/04/18 08:29:05;;;;;;;13.30;3.90;;;;;;;13.05;61.43;101268.84;107636;1250;108489;-63
2023/04/18 08:31:34;;;;;;;12.10;3.20;;;;;;;13.18;61.37;101270.59;107563;1251;99164;-62
2023/04/18 08:34:03;;;;;;;11.00;3.60;;;;;;;13.27;60.32;101268.30;107594;1250;99882;-60
2023/04/18 08:36:32;;;;;;;13.00;3.70;;;;;;;13.22;58.42;101271.14;107649;1251;113772;-63
2023/04/18 08:39:01;;;;;;;16.90;5.10;;;;;;;13.15;58.97;101275.90;107599;1251;110241;-62
2023/04/18 08:41:34;;;;;;;15.60;3.20;;;;;;;13.17;59.56;101275.14;107569;1253;108658;-63
2023/04/18 08:44:03;;;;;;;16.80;3.10;;;;;;;13.22;59.91;101272.12;107696;1251;99241;-63
2023/04/18 08:46:34;;;;;;;12.90;3.60;;;;;;;13.27;58.65;101273.02;107627;1251;99183;-63
2023/04/18 08:49:04;;;;;;;17.70;3.50;;;;;;;13.20;58.82;101269.88;107680;1251;113341;-64
2023/04/18 08:51:32;;;;;;;20.40;3.80;;;;;;;13.12;59.33;101273.48;107683;1253;109202;-62
2023/04/18 08:54:05;;;;;;;23.40;6.30;;;;;;;13.05;59.14;101273.70;107659;1251;108312;-63
2023/04/18 08:56:36;;;;;;;24.20;6.70;;;;;;;13.01;59.52;101272.59;107720;1253;99323;-61
2023/04/18 08:59:04;;;;;;;20.10;3.90;;;;;;;13.04;59.53;101274.67;107909;1250;99054;-62
2023/04/18 09:01:57;;;;;;;15.70;3.60;;;;;;;13.01;59.68;101273.02;107768;1251;113543;-63
2023/04/18 09:04:35;;;;;;;20.50;4.10;;;;;;;12.96;60.05;101275.42;107641;1251;110126;-62
2023/04/18 09:07:09;;;;;;;21.00;3.40;;;;;;;12.92;60.00;101270.21;107774;1251;106977;-62
2023/04/18 09:09:40;;;;;;;;;;;;;;;12.80;59.68;101274.36;107896;1251;99051;-62
2023/04/18 09:12:13;;;;;;;12.80;4.50;;;;;;;12.67;60.09;101273.36;107639;1250;99265;-63
2023/04/18 09:14:44;;;;;;;19.70;4.80;;;;;;;12.58;60.53;101277.71;107715;1256;113360;-61
2023/04/18 09:17:17;;;;;;;11.10;3.60;;;;;;;12.53;60.72;101275.11;107763;1251;109820;-61
2023/04/18 09:19:53;;;;;;;18.40;3.60;;;;;;;12.50;61.08;101279.01;107883;1251;108713;-62
2023/04/18 09:22:22;;;;;;;19.00;3.30;;;;;;;12.47;61.18;101280.72;107901;1251;99216;-62
2023/04/18 09:24:56;;;;;;;20.70;3.70;;;;;;;12.42;61.09;101277.48;107946;1251;99766;-61
2023/04/18 09:27:24;;;;;;;;;;;;;;;12.36;61.20;101279.11;107748;1250;112780;-63
2023/04/18 09:29:53;;;;;;;13.40;3.40;;;;;;;12.31;61.17;101279.20;107663;1249;109894;-63
2023/04/18 09:32:28;;;;;;;15.30;3.60;;;;;;;12.29;61.38;101280.44;107655;1251;108273;-63
2023/04/18 09:35:00;;;;;;;19.30;3.30;;;;;;;12.30;61.11;101278.27;107585;1251;99260;-63
2023/04/18 09:37:31;;;;;;;14.50;3.30;;;;;;;12.26;61.44;101280.58;107624;1251;99144;-62
2023/04/18 09:40:14;;;;;;;14.30;3.70;;;;;;;12.24;61.62;101280.41;107629;1251;113072;-62
2023/04/18 09:42:42;;;;;;;11.80;3.00;;;;;;;12.20;61.83;101283.55;107696;1250;109642;-63
2023/04/18 09:45:15;;;;;;;22.50;4.00;;;;;;;12.14;61.71;101287.17;107708;1255;108433;-62
2023/04/18 09:47:43;;;;;;;14.80;3.40;;;;;;;12.08;62.21;101284.45;107591;1250;99226;-62
2023/04/18 09:50:12;;;;;;;14.10;3.80;;;;;;;12.03;62.50;101285.45;107662;1251;99060;-63
2023/04/18 09:52:42;;;;;;;20.80;6.00;;;;;;;11.99;62.58;101284.63;107674;1253;113143;-61
2023/04/18 09:55:18;;;;;;;25.80;4.60;;;;;;;11.96;62.86;101278.41;107666;1253;109077;-62
2023/04/18 09:57:48;;;;;;;17.20;4.30;;;;;;;11.96;62.92;101283.67;107644;1251;108159;-63
2023/04/18 10:00:23;;;;;;;21.00;5.30;;;;;;;11.97;63.29;101278.04;107612;1253;99166;-65
2023/04/18 10:03:04;;;;;;;16.40;4.70;;;;;;;12.02;63.53;101275.03;107783;1251;99150;-62
2023/04/18 10:05:35;;;;;;;21.30;4.50;;;;;;;12.09;63.32;101276.86;107684;1251;112720;-62
2023/04/18 10:08:03;;;;;;;24.20;7.50;;;;;;;12.10;63.01;101271.70;107736;1250;109251;-62
2023/04/18 10:10:32;;;;;;;25.90;5.90;;;;;;;12.16;63.29;101272.63;107623;1251;109439;-63
2023/04/18 10:13:02;;;;;;;21.90;5.80;;;;;;;12.22;63.18;101271.91;107636;1251;99031;-62
2023/04/18 10:15:31;;;;;;;29.80;6.30;;;;;;;12.18;62.72;101270.08;107677;1251;99737;-63
2023/04/18 10:18:02;;;;;;;20.40;4.70;;;;;;;12.16;62.68;101267.17;107679;1250;112296;-61
2023/04/18 10:20:34;;;;;;;14.40;4.80;;;;;;;12.19;63.08;101263.36;107931;1251;109770;-62
2023/04/18 10:23:36;;;;;;;21.30;4.30;;;;;;;12.29;63.15;101262.52;107605;1250;108655;-63
2023/04/18 10:26:09;;;;;;;18.30;4.00;;;;;;;12.33;63.38;101257.42;107923;1249;99619;-63
2023/04/18 10:28:57;;;;;;;20.20;3.90;;;;;;;12.41;63.56;101250.84;107782;1250;99216;-64
2023/04/18 10:31:27;;;;;;;20.20;4.80;;;;;;;12.47;63.63;101240.90;107663;1250;113242;-62
2023/04/18 10:33:59;;;;;;;21.00;3.80;;;;;;;12.53;63.42;101234.40;107683;1250;109742;-64
2023/04/18 10:36:31;;;;;;;20.50;4.10;;;;;;;12.59;62.96;101224.41;107640;1250;107844;-63
2023/04/18 10:39:18;;;;;;;24.70;4.50;;;;;;;12.55;62.46;101217.05;107688;1253;99208;-63
2023/04/18 10:41:50;;;;;;;14.00;5.00;;;;;;;12.51;62.62;101210.00;107718;1250;99701;-62
2023/04/18 10:44:23;;;;;;;15.10;4.70;;;;;;;12.39;62.18;101212.10;107948;1248;113508;-62
2023/04/18 10:46:53;;;;;;;17.80;5.10;;;;;;;12.20;63.04;101223.88;107934;1249;109693;-64
2023/04/18 10:49:26;;;;;;;18.50;5.70;;;;;;;12.06;63.73;101237.48;107937;1248;108608;-62
2023/04/18 10:52:01;;;;;;;20.80;6.40;;;;;;;11.99;64.30;101245.10;107927;1248;99148;-64
2023/04/18 10:54:49;;;;;;;12.80;5.30;;;;;;;11.97;64.55;101246.73;107974;1251;99373;-65
2023/04/18 10:57:18;;;;;;;27.30;5.30;;;;;;;11.98;65.21;101246.42;107841;1251;112123;-64
2023/04/18 10:59:51;;;;;;;22.80;4.70;;;;;;;12.00;65.06;101245.04;107922;1249;109228;-61
2023/04/18 11:02:24;;;;;;;20.80;4.10;;;;;;;11.97;65.30;101246.89;107874;1250;108633;-62
2023/04/18 11:04:54;;;;;;;18.00;4.80;;;;;;;11.88;65.46;101247.25;107649;1249;99232;-62
2023/04/18 11:07:38;;;;;;;20.30;5.10;;;;;;;11.88;66.05;101246.56;107759;1249;99089;-64
2023/04/18 11:10:08;;;;;;;14.40;3.60;;;;;;;11.98;66.55;101244.30;107763;1251;113100;-64
2023/04/18 11:12:39;;;;;;;20.00;3.80;;;;;;;12.10;66.58;101240.23;107720;1251;110117;-63
2023/04/18 11:15:09;;;;;;;15.20;3.00;;;;;;;12.21;67.01;101240.66;107627;1253;108606;-62
2023/04/18 11:17:39;;;;;;;17.80;3.10;;;;;;;12.33;67.06;101236.58;107676;1250;99281;-63
2023/04/18 11:20:11;;;;;;;11.40;2.90;;;;;;;12.39;66.94;101237.33;107638;1253;99723;-62
2023/04/18 11:22:49;;;;;;;12.00;3.30;;;;;;;12.45;67.11;101236.29;107807;1251;112617;-63
2023/04/18 11:25:22;;;;;;;9.90;2.90;;;;;;;12.42;67.11;101235.21;107949;1249;108548;-62